createdAt,value
2023-05-13T00:01:41.962Z,7.00
2023-05-13T00:04:10.448Z,7.38
2023-05-13T00:06:38.582Z,6.68
2023-05-13T00:09:06.718Z,7.05
2023-05-13T00:11:35.368Z,6.97
2023-05-13T00:14:03.873Z,7.72
2023-05-13T00:16:33.157Z,7.13
2023-05-13T00:19:01.139Z,6.80
2023-05-13T00:21:29.133Z,7.25
2023-05-13T00:23:57.167Z,7.32
2023-05-13T00:26:24.951Z,6.97
2023-05-13T00:28:52.898Z,7.38
2023-05-13T00:31:20.970Z,7.13
2023-05-13T00:33:50.411Z,9.32
2023-05-13T00:36:18.332Z,9.02
2023-05-13T00:38:46.249Z,9.73
2023-05-13T00:41:14.163Z,8.88
2023-05-13T00:43:42.058Z,9.38
2023-05-13T00:46:09.957Z,10.63
2023-05-13T00:48:37.869Z,11.18
2023-05-13T00:51:07.179Z,12.18
2023-05-13T00:53:35.347Z,11.70
2023-05-13T00:56:03.258Z,12.13
2023-05-13T00:58:31.226Z,14.20
2023-05-13T01:01:06.512Z,15.68
2023-05-13T01:03:38.008Z,15.88
2023-05-13T01:06:11.964Z,19.83
2023-05-13T01:08:45.555Z,21.58
2023-05-13T01:11:15.987Z,22.75
2023-05-13T01:13:46.256Z,25.30
2023-05-13T01:16:18.030Z,24.83
2023-05-13T01:18:46.784Z,24.85
2023-05-13T01:21:16.062Z,26.88
2023-05-13T01:23:45.261Z,28.85
2023-05-13T01:26:13.142Z,27.50
2023-05-13T01:28:41.068Z,26.35
2023-05-13T01:31:11.005Z,28.58
2023-05-13T01:33:39.406Z,28.58
2023-05-13T01:36:08.526Z,27.48
2023-05-13T01:38:37.152Z,29.15
2023-05-13T01:41:06.630Z,28.58
2023-05-13T01:43:34.612Z,29.27
2023-05-13T01:46:02.608Z,28.65
2023-05-13T01:48:30.525Z,29.13
2023-05-13T01:50:58.361Z,29.85
2023-05-13T01:53:26.908Z,28.95
2023-05-13T01:55:54.790Z,30.08
2023-05-13T01:58:24.002Z,29.58
2023-05-13T02:00:51.917Z,30.35
2023-05-13T02:03:20.308Z,29.75
2023-05-13T02:05:48.566Z,28.83
2023-05-13T02:08:16.494Z,28.77
2023-05-13T02:10:45.455Z,28.15
2023-05-13T02:13:13.363Z,27.65
2023-05-13T02:15:42.622Z,26.75
2023-05-13T02:18:12.899Z,25.58
2023-05-13T02:20:40.821Z,24.00
2023-05-13T02:23:08.913Z,24.00
2023-05-13T02:25:36.744Z,25.52
2023-05-13T02:28:04.897Z,23.45
2023-05-13T02:30:32.839Z,23.05
2023-05-13T02:33:02.382Z,25.63
2023-05-13T02:35:30.678Z,23.60
2023-05-13T02:37:58.884Z,20.88
2023-05-13T02:40:26.749Z,23.85
2023-05-13T02:42:54.634Z,22.88
2023-05-13T02:45:22.482Z,22.42
2023-05-13T02:47:50.462Z,22.67
2023-05-13T02:50:20.231Z,21.95
2023-05-13T02:52:48.382Z,23.05
2023-05-13T02:55:16.278Z,26.90
2023-05-13T02:57:44.467Z,24.63
2023-05-13T03:00:13.430Z,25.15
2023-05-13T03:02:41.435Z,24.20
2023-05-13T03:05:09.948Z,26.10
2023-05-13T03:07:39.336Z,25.73
2023-05-13T03:10:08.414Z,23.55
2023-05-13T03:12:36.478Z,25.80
2023-05-13T03:15:04.516Z,25.80
2023-05-13T03:17:33.505Z,25.50
2023-05-13T03:20:01.530Z,24.60
2023-05-13T03:22:29.417Z,23.75
2023-05-13T03:24:58.851Z,24.40
2023-05-13T03:27:26.731Z,24.25
2023-05-13T03:29:54.610Z,25.33
2023-05-13T03:32:23.093Z,25.05
2023-05-13T03:34:51.619Z,24.85
2023-05-13T03:37:19.535Z,25.08
2023-05-13T03:39:47.390Z,25.42
2023-05-13T03:42:16.627Z,23.83
2023-05-13T03:44:44.469Z,25.00
2023-05-13T03:47:14.711Z,23.55
2023-05-13T03:49:42.590Z,25.33
2023-05-13T03:52:10.438Z,25.75
2023-05-13T03:54:38.232Z,27.17
2023-05-13T03:57:06.606Z,25.02
2023-05-13T03:59:35.898Z,25.80
2023-05-13T04:02:03.867Z,24.33
2023-05-13T04:04:31.752Z,25.55
2023-05-13T04:06:59.641Z,24.48
2023-05-13T04:09:27.517Z,25.08
2023-05-13T04:11:55.453Z,25.13
2023-05-13T04:14:23.369Z,26.65
2023-05-13T04:16:52.735Z,25.38
2023-05-13T04:19:20.589Z,24.70
2023-05-13T04:21:48.505Z,29.48
2023-05-13T04:24:16.702Z,30.23
2023-05-13T04:26:44.725Z,28.75
2023-05-13T04:29:12.564Z,29.13
2023-05-13T04:31:40.511Z,31.83
2023-05-13T04:34:09.710Z,30.60
2023-05-13T04:36:37.585Z,32.03
2023-05-13T04:39:05.440Z,33.47
2023-05-13T04:41:33.354Z,28.20
2023-05-13T04:44:01.235Z,26.75
2023-05-13T04:46:29.122Z,27.55
2023-05-13T04:48:57.060Z,25.92
2023-05-13T04:51:26.780Z,27.13
2023-05-13T04:53:55.182Z,28.30
2023-05-13T04:56:23.391Z,28.38
2023-05-13T04:58:51.290Z,27.83
2023-05-13T05:01:19.238Z,28.20
2023-05-13T05:03:47.261Z,28.15
2023-05-13T05:06:16.031Z,27.50
2023-05-13T05:08:45.658Z,25.88
2023-05-13T05:11:13.562Z,26.45
2023-05-13T05:13:41.456Z,25.55
2023-05-13T05:16:09.778Z,25.10
2023-05-13T05:18:37.735Z,21.58
2023-05-13T05:21:05.837Z,21.90
2023-05-13T05:23:33.711Z,17.98
2023-05-13T05:26:10.954Z,15.90
2023-05-13T05:28:40.372Z,13.52
2023-05-13T05:31:08.408Z,13.07
2023-05-13T05:33:36.373Z,12.30
2023-05-13T05:36:04.469Z,11.38
2023-05-13T05:38:32.360Z,10.63
2023-05-13T05:41:00.623Z,11.30
2023-05-13T05:43:30.632Z,9.88
2023-05-13T05:45:58.617Z,10.40
2023-05-13T05:48:26.483Z,9.35
2023-05-13T05:50:55.532Z,9.18
2023-05-13T05:53:23.439Z,8.48
2023-05-13T05:55:52.980Z,8.38
2023-05-13T05:58:21.421Z,8.32
2023-05-13T06:00:50.712Z,8.02
2023-05-13T06:03:18.837Z,7.90
2023-05-13T06:05:46.834Z,8.35
2023-05-13T06:08:14.721Z,8.32
2023-05-13T06:10:42.500Z,8.48
2023-05-13T06:13:11.597Z,8.80
2023-05-13T06:15:39.828Z,8.48
2023-05-13T06:18:09.148Z,9.13
2023-05-13T06:20:37.127Z,8.52
2023-05-13T06:23:05.115Z,9.32
2023-05-13T06:25:33.098Z,8.85
2023-05-13T06:28:02.848Z,7.63
2023-05-13T06:30:31.202Z,9.52
2023-05-13T06:33:02.229Z,8.55
2023-05-13T06:35:32.073Z,8.75
2023-05-13T06:37:59.967Z,8.40
2023-05-13T06:40:30.392Z,7.80
2023-05-13T06:42:58.249Z,8.15
2023-05-13T06:45:26.278Z,8.05
2023-05-13T06:47:54.403Z,8.65
2023-05-13T06:50:22.567Z,8.20
2023-05-13T06:52:52.136Z,8.95
2023-05-13T06:55:20.032Z,7.47
2023-05-13T06:57:47.933Z,8.07
2023-05-13T07:00:16.885Z,8.00
2023-05-13T07:02:44.957Z,7.90
2023-05-13T07:05:13.459Z,7.53
2023-05-13T07:07:42.289Z,7.30
2023-05-13T07:10:12.057Z,6.97
2023-05-13T07:12:39.975Z,6.50
2023-05-13T07:15:08.808Z,6.78
2023-05-13T07:17:36.783Z,8.52
2023-05-13T07:20:05.250Z,9.35
2023-05-13T07:22:33.177Z,6.63
2023-05-13T07:25:01.483Z,6.70
2023-05-13T07:27:30.784Z,7.10
2023-05-13T07:29:59.022Z,6.25
2023-05-13T07:32:27.968Z,6.28
2023-05-13T07:34:55.802Z,6.47
2023-05-13T07:37:24.514Z,6.93
2023-05-13T07:39:53.531Z,6.90
2023-05-13T07:42:22.325Z,7.65
2023-05-13T07:44:52.707Z,6.82
2023-05-13T07:47:20.917Z,7.63
2023-05-13T07:49:49.001Z,7.90
2023-05-13T07:52:17.164Z,7.15
2023-05-13T07:54:45.153Z,7.40
2023-05-13T07:57:13.158Z,7.78
2023-05-13T07:59:42.798Z,7.72
2023-05-13T08:02:13.898Z,7.75
2023-05-13T08:04:41.857Z,8.57
2023-05-13T08:07:10.853Z,7.80
2023-05-13T08:09:38.741Z,8.77
2023-05-13T08:12:07.494Z,9.25
2023-05-13T08:14:35.839Z,7.82
2023-05-13T08:17:06.052Z,8.52
2023-05-13T08:19:35.353Z,8.90
2023-05-13T08:22:03.308Z,8.40
2023-05-13T08:24:31.285Z,9.07
2023-05-13T08:26:59.217Z,8.93
2023-05-13T08:29:27.061Z,8.00
2023-05-13T08:31:54.981Z,8.20
2023-05-13T08:34:22.890Z,8.57
2023-05-13T08:36:52.156Z,9.23
2023-05-13T08:39:19.972Z,8.77
2023-05-13T08:41:48.404Z,9.32
2023-05-13T08:44:18.891Z,9.32
2023-05-13T08:47:03.394Z,9.50
2023-05-13T08:49:31.434Z,10.60
2023-05-13T08:52:02.437Z,10.85
2023-05-13T08:54:31.135Z,9.27
2023-05-13T08:56:58.973Z,9.57
2023-05-13T08:59:26.903Z,9.75
2023-05-13T09:01:55.127Z,9.38
2023-05-13T09:04:23.001Z,9.85
2023-05-13T09:06:50.903Z,9.93
2023-05-13T09:09:20.265Z,9.88
2023-05-13T09:11:48.677Z,9.27
2023-05-13T09:14:20.139Z,11.43
2023-05-13T09:16:48.669Z,9.35
2023-05-13T09:19:16.729Z,10.27
2023-05-13T09:21:45.176Z,9.90
2023-05-13T09:24:18.906Z,10.90
2023-05-13T09:26:49.001Z,10.00
2023-05-13T09:29:21.846Z,10.25
2023-05-13T09:31:51.335Z,10.75
2023-05-13T09:34:29.864Z,9.68
2023-05-13T09:36:59.136Z,9.50
2023-05-13T09:39:27.601Z,9.95
2023-05-13T09:41:56.873Z,10.35
2023-05-13T09:44:24.788Z,10.25
2023-05-13T09:46:53.484Z,11.52
2023-05-13T09:49:23.965Z,10.82
2023-05-13T09:51:51.893Z,10.65
2023-05-13T09:54:19.969Z,10.70
2023-05-13T09:56:47.866Z,10.95
2023-05-13T09:59:17.524Z,10.52
2023-05-13T10:01:46.712Z,11.13
2023-05-13T10:04:15.045Z,10.75
2023-05-13T10:06:43.069Z,11.27
2023-05-13T10:09:11.377Z,10.45
2023-05-13T10:11:39.486Z,10.85
2023-05-13T10:14:07.909Z,11.07
2023-05-13T10:16:37.720Z,10.98
2023-05-13T10:19:06.311Z,10.82
2023-05-13T10:21:36.828Z,11.32
2023-05-13T10:24:07.567Z,11.02
2023-05-13T10:26:35.748Z,11.63
2023-05-13T10:29:04.055Z,12.55
2023-05-13T10:31:32.186Z,12.02
2023-05-13T10:34:01.487Z,11.93
2023-05-13T10:36:42.623Z,12.45
2023-05-13T10:39:28.604Z,12.68
2023-05-13T10:42:28.928Z,12.73
2023-05-13T10:44:56.822Z,12.90
2023-05-13T10:47:24.865Z,12.80
2023-05-13T10:49:54.582Z,12.73
2023-05-13T10:52:24.110Z,12.40
2023-05-13T10:55:01.277Z,13.23
2023-05-13T10:57:30.427Z,13.30
2023-05-13T11:00:15.299Z,13.00
2023-05-13T11:02:43.593Z,12.98
2023-05-13T11:05:20.484Z,13.57
2023-05-13T11:07:56.559Z,13.30
2023-05-13T11:10:30.020Z,14.20
2023-05-13T11:13:24.943Z,12.70
2023-05-13T11:15:54.145Z,13.38
2023-05-13T11:18:24.634Z,13.32
2023-05-13T11:20:55.148Z,12.95
2023-05-13T11:23:23.334Z,11.98
2023-05-13T11:26:12.663Z,12.82
2023-05-13T11:29:00.911Z,13.90
2023-05-13T11:31:30.033Z,12.65
2023-05-13T11:34:16.164Z,13.07
2023-05-13T11:36:47.078Z,12.23
2023-05-13T11:39:17.148Z,13.10
2023-05-13T11:41:47.304Z,11.82
2023-05-13T11:44:16.264Z,11.90
2023-05-13T11:46:51.232Z,11.95
2023-05-13T11:49:38.875Z,12.55
2023-05-13T11:52:10.592Z,12.93
2023-05-13T11:54:45.147Z,12.48
2023-05-13T11:57:19.682Z,13.38
2023-05-13T11:59:51.615Z,13.45
2023-05-13T12:02:22.290Z,13.15
2023-05-13T12:04:51.551Z,13.57
2023-05-13T12:07:25.564Z,13.57
2023-05-13T12:09:54.669Z,13.60
2023-05-13T12:12:22.687Z,14.43
2023-05-13T12:14:51.230Z,12.82
2023-05-13T12:17:19.641Z,13.43
2023-05-13T12:20:06.433Z,12.77
2023-05-13T12:22:36.557Z,11.52
2023-05-13T12:25:37.516Z,12.90
2023-05-13T12:28:08.254Z,12.10
2023-05-13T12:30:36.407Z,11.38
2023-05-13T12:33:05.638Z,12.25
2023-05-13T12:35:33.675Z,12.48
2023-05-13T12:38:04.062Z,13.20
2023-05-13T12:40:32.166Z,12.00
2023-05-13T12:43:00.206Z,11.98
2023-05-13T12:45:29.936Z,11.90
2023-05-13T12:47:58.076Z,13.75
2023-05-13T12:50:26.641Z,12.45
2023-05-13T12:52:54.830Z,12.30
2023-05-13T12:55:24.504Z,12.95
2023-05-13T12:57:56.407Z,12.32
2023-05-13T13:00:25.198Z,12.30
2023-05-13T13:02:54.307Z,11.90
2023-05-13T13:05:22.738Z,12.15
2023-05-13T13:07:50.934Z,11.27
2023-05-13T13:10:18.848Z,11.90
2023-05-13T13:12:49.514Z,12.13
2023-05-13T13:15:17.489Z,11.93
2023-05-13T13:17:47.692Z,11.43
2023-05-13T13:20:15.618Z,11.68
2023-05-13T13:22:43.548Z,11.93
2023-05-13T13:25:11.726Z,11.40
2023-05-13T13:27:39.628Z,11.35
2023-05-13T13:30:10.128Z,11.05
2023-05-13T13:32:38.033Z,10.75
2023-05-13T13:35:06.589Z,10.65
2023-05-13T13:37:35.449Z,10.35
2023-05-13T13:40:04.240Z,10.98
2023-05-13T13:42:43.536Z,11.35
2023-05-13T13:45:14.015Z,10.40
2023-05-13T13:47:42.053Z,10.80
2023-05-13T13:50:11.929Z,11.43
2023-05-13T13:52:39.858Z,10.70
2023-05-13T13:55:08.811Z,11.48
2023-05-13T13:57:36.642Z,10.48
2023-05-13T14:00:05.213Z,10.63
2023-05-13T14:02:34.681Z,11.18
2023-05-13T14:05:02.611Z,11.35
2023-05-13T14:07:30.632Z,10.15
2023-05-13T14:10:00.914Z,11.15
2023-05-13T14:12:29.385Z,10.98
2023-05-13T14:14:57.260Z,11.68
2023-05-13T14:17:25.283Z,11.43
2023-05-13T14:19:55.609Z,11.95
2023-05-13T14:22:23.860Z,11.60
2023-05-13T14:24:52.773Z,10.98
2023-05-13T14:27:21.649Z,11.35
2023-05-13T14:29:50.121Z,11.45
2023-05-13T14:32:18.008Z,11.95
2023-05-13T14:34:46.191Z,11.93
2023-05-13T14:37:15.611Z,11.95
2023-05-13T14:39:43.528Z,11.13
2023-05-13T14:42:12.291Z,11.02
2023-05-13T14:44:41.479Z,11.52
2023-05-13T14:47:09.641Z,11.15
2023-05-13T14:49:37.654Z,11.80
2023-05-13T14:52:06.108Z,12.07
2023-05-13T14:54:37.894Z,12.02
2023-05-13T14:57:07.209Z,10.80
2023-05-13T14:59:35.293Z,11.77
2023-05-13T15:02:03.862Z,10.73
2023-05-13T15:04:31.848Z,11.30
2023-05-13T15:06:59.789Z,11.25
2023-05-13T15:09:27.737Z,11.50
2023-05-13T15:11:57.030Z,12.63
2023-05-13T15:14:26.291Z,11.68
2023-05-13T15:16:54.411Z,10.68
2023-05-13T15:19:22.409Z,11.52
2023-05-13T15:21:50.356Z,10.73
2023-05-13T15:24:18.238Z,12.77
2023-05-13T15:26:46.137Z,11.00
2023-05-13T15:29:16.562Z,10.50
2023-05-13T15:31:44.426Z,8.93
2023-05-13T15:34:12.263Z,8.13
2023-05-13T15:36:40.138Z,6.35
2023-05-13T15:39:08.058Z,6.25
2023-05-13T15:41:36.808Z,6.72
2023-05-13T15:44:04.843Z,5.90
2023-05-13T15:46:34.671Z,6.53
2023-05-13T15:49:03.118Z,7.45
2023-05-13T15:51:31.702Z,7.38
2023-05-13T15:54:01.997Z,10.32
2023-05-13T15:56:29.826Z,10.30
2023-05-13T15:58:57.699Z,10.18
2023-05-13T16:01:25.618Z,10.32
2023-05-13T16:03:55.082Z,10.25
2023-05-13T16:06:23.220Z,11.77
2023-05-13T16:08:51.220Z,10.45
2023-05-13T16:11:19.105Z,10.73
2023-05-13T16:13:47.248Z,11.05
2023-05-13T16:16:15.239Z,11.02
2023-05-13T16:18:43.253Z,10.15
2023-05-13T16:21:12.517Z,9.55
2023-05-13T16:23:40.463Z,9.52
2023-05-13T16:26:08.432Z,9.18
2023-05-13T16:28:36.452Z,9.73
2023-05-13T16:31:04.337Z,10.77
2023-05-13T16:33:32.936Z,10.07
2023-05-13T16:36:01.167Z,9.93
2023-05-13T16:38:30.951Z,8.88
2023-05-13T16:40:59.301Z,8.68
2023-05-13T16:43:27.158Z,8.32
2023-05-13T16:45:54.998Z,7.13
2023-05-13T16:48:23.045Z,6.60
2023-05-13T16:50:51.169Z,6.80
2023-05-13T16:53:22.176Z,6.75
2023-05-13T16:55:51.559Z,6.20
2023-05-13T16:58:19.428Z,5.63
2023-05-13T17:00:47.319Z,5.82
2023-05-13T17:03:15.415Z,6.35
2023-05-13T17:05:43.457Z,6.20
2023-05-13T17:08:11.362Z,6.40
2023-05-13T17:10:39.224Z,6.30
2023-05-13T17:13:08.513Z,6.53
2023-05-13T17:15:36.479Z,7.38
2023-05-13T17:18:04.625Z,7.47
2023-05-13T17:20:32.520Z,7.45
2023-05-13T17:23:00.449Z,8.07
2023-05-13T17:25:28.296Z,8.30
2023-05-13T17:27:56.182Z,8.38
2023-05-13T17:30:25.522Z,9.07
2023-05-13T17:32:55.503Z,9.98
2023-05-13T17:35:23.403Z,9.90
2023-05-13T17:37:51.454Z,9.88
2023-05-13T17:40:19.303Z,9.70
2023-05-13T17:42:47.237Z,10.55
2023-05-13T17:45:15.336Z,10.52
2023-05-13T17:47:44.642Z,11.23
2023-05-13T17:50:14.450Z,10.95
2023-05-13T17:52:44.582Z,10.93
2023-05-13T17:55:12.436Z,10.98
2023-05-13T17:57:40.301Z,10.70
2023-05-13T18:00:09.193Z,10.90
2023-05-13T18:02:37.146Z,10.68
2023-05-13T18:05:07.240Z,10.95
2023-05-13T18:07:35.189Z,10.75
2023-05-13T18:10:06.238Z,10.18
2023-05-13T18:12:34.131Z,11.05
2023-05-13T18:15:02.147Z,10.98
2023-05-13T18:17:30.144Z,11.52
2023-05-13T18:19:58.168Z,10.93
2023-05-13T18:22:27.523Z,11.55
2023-05-13T18:24:55.488Z,12.30
2023-05-13T18:27:23.401Z,13.25
2023-05-13T18:29:51.289Z,11.70
2023-05-13T18:32:19.164Z,12.98
2023-05-13T18:34:47.072Z,13.23
2023-05-13T18:37:15.096Z,12.32
2023-05-13T18:39:45.829Z,13.60
2023-05-13T18:42:13.874Z,13.07
2023-05-13T18:44:41.784Z,13.23
2023-05-13T18:47:09.789Z,13.65
2023-05-13T18:49:37.658Z,13.45
2023-05-13T18:52:06.168Z,13.82
2023-05-13T18:54:34.039Z,13.25
2023-05-13T18:57:03.377Z,14.00
2023-05-13T18:59:31.365Z,14.60
2023-05-13T19:01:59.561Z,14.65
2023-05-13T19:04:27.695Z,14.45
2023-05-13T19:06:56.117Z,14.07
2023-05-13T19:09:24.034Z,15.57
2023-05-13T19:11:51.932Z,14.18
2023-05-13T19:14:21.197Z,14.52
2023-05-13T19:16:49.165Z,14.48
2023-05-13T19:19:17.174Z,13.73
2023-05-13T19:21:45.075Z,13.15
2023-05-13T19:24:12.855Z,14.48
2023-05-13T19:26:40.836Z,14.05
2023-05-13T19:29:11.140Z,15.30
2023-05-13T19:31:40.788Z,14.30
2023-05-13T19:34:09.777Z,16.20
2023-05-13T19:36:37.692Z,16.25
2023-05-13T19:39:05.597Z,15.82
2023-05-13T19:41:34.506Z,16.13
2023-05-13T19:44:02.442Z,17.02
2023-05-13T19:46:30.588Z,17.33
2023-05-13T19:48:59.895Z,16.80
2023-05-13T19:51:27.818Z,17.38
2023-05-13T19:53:56.705Z,17.65
2023-05-13T19:56:24.809Z,17.50
2023-05-13T19:58:52.706Z,19.33
2023-05-13T20:01:20.842Z,20.00
2023-05-13T20:03:48.895Z,20.35
2023-05-13T20:06:18.257Z,19.83
2023-05-13T20:08:46.094Z,19.77
2023-05-13T20:11:14.002Z,20.40
2023-05-13T20:13:41.887Z,20.52
2023-05-13T20:16:09.804Z,19.20
2023-05-13T20:18:38.241Z,20.92
2023-05-13T20:21:06.264Z,21.38
2023-05-13T20:23:35.512Z,20.67
2023-05-13T20:26:03.390Z,21.75
2023-05-13T20:28:31.298Z,20.08
2023-05-13T20:30:59.296Z,21.08
2023-05-13T20:33:27.189Z,21.67
2023-05-13T20:35:55.170Z,21.70
2023-05-13T20:38:23.060Z,22.42
2023-05-13T20:40:52.240Z,23.13
2023-05-13T20:43:20.120Z,22.60
2023-05-13T20:45:48.152Z,21.63
2023-05-13T20:48:16.057Z,22.77
2023-05-13T20:50:43.954Z,23.50
2023-05-13T20:53:11.807Z,23.95
2023-05-13T20:55:39.711Z,22.13
2023-05-13T20:58:08.995Z,23.38
2023-05-13T21:00:51.753Z,24.63
2023-05-13T21:03:22.737Z,24.13
2023-05-13T21:05:50.796Z,23.63
2023-05-13T21:08:18.636Z,24.02
2023-05-13T21:10:46.758Z,24.58
2023-05-13T21:13:16.228Z,25.67
2023-05-13T21:15:44.176Z,24.70
2023-05-13T21:18:12.078Z,25.77
2023-05-13T21:20:39.982Z,24.85
2023-05-13T21:23:07.882Z,27.50
2023-05-13T21:25:37.397Z,26.67
2023-05-13T21:28:08.346Z,26.98
2023-05-13T21:30:37.622Z,25.83
2023-05-13T21:33:05.753Z,27.95
2023-05-13T21:35:34.035Z,28.35
2023-05-13T21:38:11.541Z,30.35
2023-05-13T21:40:40.525Z,31.55
2023-05-13T21:43:08.501Z,33.13
2023-05-13T21:45:40.218Z,34.03
2023-05-13T21:48:08.367Z,34.75
2023-05-13T21:50:36.385Z,34.30
2023-05-13T21:53:04.938Z,32.55
2023-05-13T21:55:35.009Z,31.60
2023-05-13T21:58:03.201Z,32.60
2023-05-13T22:00:31.723Z,33.05
2023-05-13T22:03:01.746Z,33.15
2023-05-13T22:05:29.749Z,33.58
2023-05-13T22:08:00.009Z,34.53
2023-05-13T22:10:28.273Z,35.95
2023-05-13T22:12:56.270Z,34.25
2023-05-13T22:15:24.444Z,33.78
2023-05-13T22:17:53.233Z,34.97
2023-05-13T22:20:23.248Z,38.38
2023-05-13T22:22:51.380Z,37.97
2023-05-13T22:25:19.538Z,36.75
2023-05-13T22:27:48.467Z,37.97
2023-05-13T22:30:16.820Z,37.75
2023-05-13T22:32:44.871Z,36.70
2023-05-13T22:35:12.960Z,37.65
2023-05-13T22:37:43.164Z,37.50
2023-05-13T22:40:12.428Z,38.60
2023-05-13T22:42:40.530Z,38.92
2023-05-13T22:45:09.637Z,36.55
2023-05-13T22:47:37.779Z,37.78
2023-05-13T22:50:06.612Z,39.47
2023-05-13T22:52:34.644Z,38.20
2023-05-13T22:55:03.898Z,38.05
2023-05-13T22:57:31.975Z,38.50
2023-05-13T23:00:00.174Z,38.35
2023-05-13T23:02:28.267Z,39.63
2023-05-13T23:04:56.320Z,41.47
2023-05-13T23:07:24.394Z,39.60
2023-05-13T23:09:52.475Z,40.58
2023-05-13T23:12:23.952Z,40.45
2023-05-13T23:14:52.159Z,41.25
2023-05-13T23:17:20.035Z,40.85
2023-05-13T23:19:48.173Z,40.03
2023-05-13T23:22:16.417Z,41.15
2023-05-13T23:24:44.624Z,39.15
2023-05-13T23:27:12.677Z,38.63
2023-05-13T23:29:42.428Z,39.85
2023-05-13T23:32:10.471Z,39.17
2023-05-13T23:34:38.582Z,40.13
2023-05-13T23:37:06.836Z,39.40
2023-05-13T23:39:34.821Z,40.47
2023-05-13T23:42:02.696Z,39.00
2023-05-13T23:44:30.853Z,38.97
2023-05-13T23:47:00.186Z,39.67
2023-05-13T23:49:28.172Z,39.03
2023-05-13T23:51:56.199Z,39.78
2023-05-13T23:54:24.600Z,38.70
2023-05-13T23:56:52.652Z,39.60
2023-05-13T23:59:20.623Z,39.08
